createdAt,value
2023-09-06T00:00:01.716Z,88
2023-09-06T00:16:01.526Z,88
2023-09-06T00:31:01.888Z,88
2023-09-06T00:46:01.586Z,92
2023-09-06T01:00:01.677Z,90
2023-09-06T01:16:01.624Z,90
2023-09-06T01:31:01.789Z,90
2023-09-06T01:46:01.736Z,90
2023-09-06T02:00:01.667Z,91
2023-09-06T02:16:01.914Z,91
2023-09-06T02:31:01.820Z,91
2023-09-06T02:46:43.169Z,91
2023-09-06T03:00:01.649Z,91
2023-09-06T03:16:01.830Z,92
2023-09-06T03:31:01.911Z,92
2023-09-06T03:46:01.813Z,92
2023-09-06T04:00:02.015Z,93
2023-09-06T04:16:02.037Z,93
2023-09-06T04:31:02.162Z,93
2023-09-06T04:46:02.372Z,93
2023-09-06T05:00:02.306Z,93
2023-09-06T05:16:02.249Z,93
2023-09-06T05:31:02.323Z,93
2023-09-06T05:46:02.348Z,93
2023-09-06T06:00:02.294Z,93
2023-09-06T06:16:02.336Z,91
2023-09-06T06:31:02.576Z,90
2023-09-06T06:46:02.621Z,88
2023-09-06T07:00:02.692Z,86
2023-09-06T07:16:04.451Z,82
2023-09-06T07:31:02.860Z,80
2023-09-06T07:46:02.625Z,79
2023-09-06T08:00:02.515Z,76
2023-09-06T08:16:04.303Z,74
2023-09-06T08:31:03.504Z,69
2023-09-06T08:46:02.988Z,67
2023-09-06T09:00:04.347Z,66
2023-09-06T09:16:05.579Z,67
2023-09-06T09:31:02.891Z,63
2023-09-06T09:46:02.855Z,60
2023-09-06T10:00:02.866Z,61
2023-09-06T10:16:03.139Z,61
2023-09-06T10:31:03.007Z,61
2023-09-06T10:46:03.014Z,63
2023-09-06T11:00:03.011Z,59
2023-09-06T11:16:03.039Z,60
2023-09-06T11:31:03.311Z,58
2023-09-06T11:46:03.230Z,57
2023-09-06T12:00:04.769Z,60
2023-09-06T12:16:03.189Z,58
2023-09-06T12:31:07.758Z,56
2023-09-06T12:46:03.183Z,53
2023-09-06T13:00:03.258Z,53
2023-09-06T13:16:03.242Z,53
2023-09-06T13:31:03.477Z,52
2023-09-06T13:46:07.703Z,51
2023-09-06T14:00:00.645Z,50
2023-09-06T14:16:03.381Z,51
2023-09-06T14:31:04.895Z,52
2023-09-06T14:46:03.433Z,51
2023-09-06T15:00:03.591Z,53
2023-09-06T15:16:03.433Z,52
2023-09-06T15:31:03.614Z,54
2023-09-06T15:46:03.703Z,55
2023-09-06T16:00:12.811Z,56
2023-09-06T16:16:03.625Z,56
2023-09-06T16:31:10.144Z,56
2023-09-06T16:46:04.035Z,58
2023-09-06T17:00:03.683Z,61
2023-09-06T17:16:03.837Z,61
2023-09-06T17:31:03.748Z,65
2023-09-06T17:46:04.070Z,67
2023-09-06T18:00:03.812Z,69
2023-09-06T18:16:03.952Z,71
2023-09-06T18:31:04.049Z,74
2023-09-06T18:46:04.229Z,76
2023-09-06T19:00:03.951Z,77
2023-09-06T19:16:04.347Z,78
2023-09-06T19:31:04.054Z,79
2023-09-06T19:46:04.120Z,80
2023-09-06T20:00:04.655Z,81
2023-09-06T20:16:04.736Z,82
2023-09-06T20:31:04.185Z,83
2023-09-06T20:46:04.890Z,84
2023-09-06T21:00:04.185Z,85
2023-09-06T21:16:04.252Z,85
2023-09-06T21:31:04.303Z,86
2023-09-06T21:46:04.307Z,87
2023-09-06T22:00:04.373Z,88
2023-09-06T22:16:04.320Z,88
2023-09-06T22:31:04.608Z,88
2023-09-06T22:46:04.719Z,89
2023-09-06T23:00:04.559Z,89
2023-09-06T23:16:04.532Z,90
2023-09-06T23:31:04.581Z,90
2023-09-06T23:46:04.749Z,90
